createdAt,value
2022-12-13T05:00:33.190Z,41.10
2022-12-13T05:03:04.834Z,41.93
2022-12-13T05:05:38.651Z,48.50
2022-12-13T05:08:10.358Z,46.70
2022-12-13T05:10:42.098Z,45.87
2022-12-13T05:13:13.745Z,48.67
2022-12-13T05:15:52.061Z,45.53
2022-12-13T05:18:26.752Z,42.10
2022-12-13T05:21:01.719Z,39.63
2022-12-13T05:23:33.482Z,51.30
2022-12-13T05:26:05.439Z,43.60
2022-12-13T05:28:37.104Z,46.90
2022-12-13T05:31:23.201Z,46.20
2022-12-13T05:33:55.671Z,44.77
2022-12-13T05:36:33.363Z,48.13
2022-12-13T05:39:05.063Z,44.80
2022-12-13T05:42:02.239Z,45.50
2022-12-13T05:44:34.166Z,46.20
2022-12-13T05:47:07.150Z,41.43
2022-12-13T05:49:39.772Z,44.10
2022-12-13T05:52:16.710Z,45.80
2022-12-13T05:54:48.379Z,44.73
2022-12-13T05:57:20.031Z,51.33
2022-12-13T05:59:51.705Z,48.03
2022-12-13T06:02:24.844Z,43.43
2022-12-13T06:04:56.582Z,44.70
2022-12-13T06:07:28.224Z,44.27
2022-12-13T06:10:09.998Z,47.03
2022-12-13T06:12:43.389Z,50.87
2022-12-13T06:15:22.311Z,45.13
2022-12-13T06:17:55.948Z,48.97
2022-12-13T06:20:27.607Z,44.50
2022-12-13T06:22:59.322Z,46.87
2022-12-13T06:25:32.088Z,49.20
2022-12-13T06:28:04.232Z,45.07
2022-12-13T06:30:36.291Z,44.50
2022-12-13T06:33:15.767Z,49.77
2022-12-13T06:35:56.801Z,51.50
2022-12-13T06:38:31.665Z,45.80
2022-12-13T06:41:08.580Z,55.47
2022-12-13T06:43:41.782Z,43.10
2022-12-13T06:46:13.655Z,46.33
2022-12-13T06:48:46.743Z,41.20
2022-12-13T06:51:22.425Z,41.00
2022-12-13T06:53:54.890Z,41.50
2022-12-13T06:56:26.532Z,46.23
2022-12-13T06:59:01.137Z,46.47
2022-12-13T07:01:37.261Z,46.43
2022-12-13T07:04:28.728Z,37.77
2022-12-13T07:07:02.415Z,39.83
2022-12-13T07:09:34.219Z,39.30
2022-12-13T07:12:06.661Z,38.20
2022-12-13T07:14:41.089Z,35.43
2022-12-13T07:17:13.018Z,40.20
2022-12-13T07:20:07.058Z,43.97
2022-12-13T07:22:44.895Z,40.87
2022-12-13T07:25:28.194Z,39.90
2022-12-13T07:28:02.922Z,45.47
2022-12-13T07:30:41.189Z,43.83
2022-12-13T07:33:13.752Z,41.47
2022-12-13T07:36:01.041Z,43.30
2022-12-13T07:38:32.805Z,36.73
2022-12-13T07:41:05.018Z,40.70
2022-12-13T07:43:36.878Z,36.67
2022-12-13T07:46:09.472Z,38.23
2022-12-13T07:48:41.192Z,43.83
2022-12-13T07:51:14.166Z,41.73
2022-12-13T07:53:45.803Z,44.40
2022-12-13T07:56:17.471Z,38.03
2022-12-13T07:58:49.166Z,39.27
2022-12-13T08:01:20.856Z,41.80
2022-12-13T08:03:52.538Z,41.30
2022-12-13T08:06:25.535Z,38.60
2022-12-13T08:08:57.243Z,36.33
2022-12-13T08:11:28.934Z,37.87
2022-12-13T08:14:00.604Z,38.73
2022-12-13T08:16:32.418Z,44.03
2022-12-13T08:19:04.823Z,42.57
2022-12-13T08:21:54.449Z,44.60
2022-12-13T08:24:28.293Z,39.07
2022-12-13T08:27:01.238Z,40.30
2022-12-13T08:29:35.328Z,37.40
2022-12-13T08:32:08.624Z,38.20
2022-12-13T08:34:40.515Z,40.33
2022-12-13T08:37:13.584Z,37.70
2022-12-13T08:39:45.267Z,36.37
2022-12-13T08:42:19.745Z,46.13
2022-12-13T08:44:52.402Z,47.53
2022-12-13T08:47:26.240Z,144.93
2022-12-13T08:50:02.714Z,90.00
2022-12-13T08:52:40.457Z,83.83
2022-12-13T08:55:14.271Z,43.73
2022-12-13T08:57:45.939Z,40.10
2022-12-13T09:00:20.954Z,41.50
2022-12-13T09:02:52.638Z,44.27
2022-12-13T09:05:32.531Z,52.00
2022-12-13T09:08:24.179Z,37.77
2022-12-13T09:10:59.333Z,40.03
2022-12-13T09:13:33.218Z,36.80
2022-12-13T09:16:05.983Z,34.03
2022-12-13T09:18:46.614Z,39.50
2022-12-13T09:21:31.006Z,35.17
2022-12-13T09:24:05.412Z,36.43
2022-12-13T09:26:57.017Z,31.47
2022-12-13T09:29:29.220Z,36.50
2022-12-13T09:32:01.021Z,37.67
2022-12-13T09:34:33.394Z,37.20
2022-12-13T09:37:05.235Z,35.90
2022-12-13T09:39:38.237Z,36.97
2022-12-13T09:42:10.822Z,31.47
2022-12-13T09:44:48.260Z,33.63
2022-12-13T09:47:35.293Z,35.07
2022-12-13T09:50:15.040Z,37.83
2022-12-13T09:52:47.127Z,34.87
2022-12-13T09:55:21.221Z,34.10
2022-12-13T09:57:53.357Z,34.23
2022-12-13T10:00:25.893Z,39.83
2022-12-13T10:02:58.462Z,32.40
2022-12-13T10:05:34.374Z,34.80
2022-12-13T10:08:13.010Z,33.00
2022-12-13T10:10:46.105Z,33.93
2022-12-13T10:13:19.275Z,29.73
2022-12-13T10:15:52.860Z,32.10
2022-12-13T10:18:35.348Z,36.80
2022-12-13T10:21:09.638Z,31.67
2022-12-13T10:24:15.136Z,38.20
2022-12-13T10:26:36.989Z,30.70
2022-12-13T10:29:08.675Z,27.50
2022-12-13T10:31:41.372Z,32.77
2022-12-13T10:34:18.435Z,29.13
2022-12-13T10:36:50.150Z,32.70
2022-12-13T10:39:36.715Z,36.57
2022-12-13T10:42:13.943Z,29.73
2022-12-13T10:45:09.538Z,30.07
2022-12-13T10:47:42.096Z,31.03
2022-12-13T10:50:27.296Z,30.47
2022-12-13T10:52:59.538Z,32.43
2022-12-13T10:55:32.061Z,32.93
2022-12-13T10:58:05.859Z,28.43
2022-12-13T11:00:39.601Z,29.60
2022-12-13T11:03:13.729Z,30.87
2022-12-13T11:05:45.399Z,33.13
2022-12-13T11:08:25.112Z,29.20
2022-12-13T11:10:57.994Z,28.50
2022-12-13T11:13:34.841Z,27.10
2022-12-13T11:16:20.020Z,28.10
2022-12-13T11:18:52.947Z,25.80
2022-12-13T11:21:25.613Z,28.33
2022-12-13T11:24:01.481Z,21.33
2022-12-13T11:26:34.790Z,27.33
2022-12-13T11:29:19.774Z,29.37
2022-12-13T11:31:54.734Z,26.17
2022-12-13T11:34:32.055Z,25.17
2022-12-13T11:37:08.768Z,25.00
2022-12-13T11:39:41.552Z,25.33
2022-12-13T11:42:16.723Z,23.93
2022-12-13T11:44:55.323Z,23.70
2022-12-13T11:47:28.921Z,25.73
2022-12-13T11:50:00.566Z,26.00
2022-12-13T11:52:35.536Z,21.93
2022-12-13T11:55:11.065Z,22.63
2022-12-13T11:57:44.877Z,23.03
2022-12-13T12:00:34.639Z,26.13
2022-12-13T12:03:10.645Z,28.17
2022-12-13T12:05:45.655Z,26.33
2022-12-13T12:08:32.121Z,26.50
2022-12-13T12:11:08.772Z,26.80
2022-12-13T12:13:51.698Z,22.73
2022-12-13T12:16:30.898Z,24.20
2022-12-13T12:19:02.661Z,24.47
2022-12-13T12:22:04.971Z,24.03
2022-12-13T12:24:29.821Z,22.97
2022-12-13T12:27:11.227Z,22.63
2022-12-13T12:30:01.521Z,22.90
2022-12-13T12:32:41.253Z,24.33
2022-12-13T12:35:32.248Z,25.03
2022-12-13T12:38:11.780Z,23.63
2022-12-13T12:41:15.772Z,21.03
2022-12-13T12:43:45.418Z,22.43
2022-12-13T12:46:47.161Z,26.37
2022-12-13T12:49:45.731Z,22.50
2022-12-13T12:52:21.627Z,21.27
2022-12-13T12:54:56.328Z,22.37
2022-12-13T12:57:32.479Z,19.67
2022-12-13T13:00:05.039Z,24.40
2022-12-13T13:02:38.911Z,21.13
2022-12-13T13:05:16.607Z,21.83
2022-12-13T13:07:51.575Z,16.13
2022-12-13T13:10:26.251Z,19.63
2022-12-13T13:13:32.946Z,21.47
2022-12-13T13:15:54.219Z,22.10
2022-12-13T13:18:45.894Z,19.77
2022-12-13T13:21:49.389Z,19.60
2022-12-13T13:24:24.736Z,18.07
2022-12-13T13:26:57.110Z,17.53
2022-12-13T13:29:33.844Z,16.37
2022-12-13T13:32:29.428Z,17.97
2022-12-13T13:35:50.784Z,18.67
2022-12-13T13:39:01.636Z,17.60
2022-12-13T13:41:55.415Z,18.73
2022-12-13T13:44:59.694Z,19.77
2022-12-13T13:47:38.695Z,29.77
2022-12-13T13:50:54.343Z,19.33
2022-12-13T13:53:59.176Z,18.93
2022-12-13T13:56:45.397Z,18.53
2022-12-13T13:59:59.669Z,19.37
2022-12-13T14:03:22.395Z,20.37
2022-12-13T14:06:48.429Z,22.47
2022-12-13T14:09:53.260Z,20.27
2022-12-13T14:13:02.495Z,23.07
2022-12-13T14:16:07.331Z,18.47
2022-12-13T14:19:11.259Z,20.37
2022-12-13T14:21:52.101Z,20.70
2022-12-13T14:24:27.990Z,23.67
2022-12-13T14:27:07.696Z,22.63
2022-12-13T14:29:41.590Z,23.57
2022-12-13T14:32:27.157Z,17.37
2022-12-13T14:35:26.005Z,21.80
2022-12-13T14:37:59.425Z,23.27
2022-12-13T14:40:32.014Z,23.50
2022-12-13T14:43:03.798Z,22.07
2022-12-13T14:45:37.058Z,24.80
2022-12-13T14:48:12.450Z,19.90
2022-12-13T14:50:44.402Z,22.77
2022-12-13T14:53:23.804Z,22.57
2022-12-13T14:56:06.290Z,23.70
2022-12-13T14:58:38.059Z,24.50
2022-12-13T15:01:29.339Z,24.13
2022-12-13T15:04:18.521Z,20.83
2022-12-13T15:06:55.799Z,23.07
2022-12-13T15:09:29.069Z,28.73
2022-12-13T15:12:14.853Z,23.87
2022-12-13T15:14:58.214Z,19.57
2022-12-13T15:17:33.034Z,19.57
2022-12-13T15:20:21.473Z,23.40
2022-12-13T15:22:57.740Z,23.70
2022-12-13T15:25:29.519Z,20.63
2022-12-13T15:28:01.155Z,23.53
2022-12-13T15:30:33.876Z,21.17
2022-12-13T15:33:08.006Z,24.87
2022-12-13T15:35:39.714Z,27.70
2022-12-13T15:38:12.032Z,25.17
2022-12-13T15:40:44.186Z,20.47
2022-12-13T15:43:16.470Z,19.50
2022-12-13T15:45:49.343Z,20.53
2022-12-13T15:48:25.145Z,22.33
2022-12-13T15:51:10.264Z,23.77
2022-12-13T15:54:00.559Z,19.37
2022-12-13T15:56:33.560Z,19.70
2022-12-13T15:59:05.880Z,21.70
2022-12-13T16:01:37.887Z,22.80
2022-12-13T16:04:10.960Z,18.37
2022-12-13T16:06:42.599Z,18.35
2022-12-13T16:09:16.649Z,20.97
2022-12-13T16:11:49.833Z,21.30
2022-12-13T16:14:40.844Z,20.93
2022-12-13T16:17:23.169Z,18.57
2022-12-13T16:19:56.619Z,20.53
2022-12-13T16:22:28.267Z,21.77
2022-12-13T16:24:59.890Z,16.13
2022-12-13T16:27:31.531Z,17.63
2022-12-13T16:30:11.607Z,15.57
2022-12-13T16:33:17.659Z,18.43
2022-12-13T16:35:36.204Z,18.67
2022-12-13T16:38:09.589Z,17.00
2022-12-13T16:40:41.335Z,20.87
2022-12-13T16:43:16.051Z,15.27
2022-12-13T16:45:49.310Z,17.03
2022-12-13T16:48:21.148Z,17.77
2022-12-13T16:50:57.652Z,17.00
2022-12-13T16:53:30.233Z,15.80
2022-12-13T16:56:02.172Z,18.80
2022-12-13T16:58:33.837Z,15.33
2022-12-13T17:01:08.794Z,16.13
2022-12-13T17:03:40.974Z,18.60
2022-12-13T17:06:14.372Z,16.43
2022-12-13T17:08:46.385Z,16.17
2022-12-13T17:11:18.740Z,16.03
2022-12-13T17:13:50.807Z,16.87
2022-12-13T17:16:22.497Z,17.10
2022-12-13T17:18:54.226Z,16.17
2022-12-13T17:21:27.465Z,18.20
2022-12-13T17:23:59.730Z,14.53
2022-12-13T17:26:31.366Z,16.97
2022-12-13T17:29:03.014Z,17.77
2022-12-13T17:31:36.004Z,15.33
2022-12-13T17:34:08.389Z,15.67
2022-12-13T17:36:41.370Z,21.00
2022-12-13T17:39:13.377Z,15.23
2022-12-13T17:41:54.512Z,14.23
2022-12-13T17:44:27.388Z,16.17
2022-12-13T17:46:59.036Z,15.13
2022-12-13T17:49:30.684Z,18.73
2022-12-13T17:52:03.813Z,13.23
2022-12-13T17:54:35.484Z,15.17
2022-12-13T17:57:07.096Z,22.50
2022-12-13T17:59:42.940Z,13.73
2022-12-13T18:02:14.981Z,16.47
2022-12-13T18:04:46.723Z,17.13
2022-12-13T18:07:19.697Z,17.43
2022-12-13T18:09:51.332Z,16.63
2022-12-13T18:12:22.972Z,18.30
2022-12-13T18:14:54.617Z,16.50
2022-12-13T18:17:46.537Z,15.77
2022-12-13T18:20:18.069Z,18.33
2022-12-13T18:22:51.601Z,19.50
2022-12-13T18:25:23.348Z,17.90
2022-12-13T18:28:00.669Z,19.87
2022-12-13T18:30:32.893Z,16.27
2022-12-13T18:33:04.673Z,17.70
2022-12-13T18:35:36.292Z,18.57
2022-12-13T18:38:09.299Z,18.30
2022-12-13T18:40:40.927Z,16.87
2022-12-13T18:43:12.585Z,16.77
2022-12-13T18:45:44.268Z,16.90
2022-12-13T18:48:15.919Z,17.83
2022-12-13T18:50:48.967Z,15.47
2022-12-13T18:53:22.089Z,17.40
2022-12-13T18:55:58.299Z,19.50
2022-12-13T18:58:29.943Z,15.37
2022-12-13T19:01:01.599Z,17.10
2022-12-13T19:03:33.473Z,16.47
2022-12-13T19:06:05.787Z,14.87
2022-12-13T19:08:38.812Z,15.27
2022-12-13T19:11:10.447Z,16.13
2022-12-13T19:13:42.116Z,16.37
2022-12-13T19:16:14.731Z,14.83
2022-12-13T19:18:46.481Z,19.53
2022-12-13T19:21:19.569Z,19.83
2022-12-13T19:23:57.336Z,17.57
2022-12-13T19:26:29.317Z,17.07
2022-12-13T19:29:00.984Z,16.40
2022-12-13T19:31:32.869Z,15.20
2022-12-13T19:34:04.584Z,13.93
2022-12-13T19:36:36.221Z,18.03
2022-12-13T19:39:10.521Z,15.70
2022-12-13T19:41:42.416Z,14.67
2022-12-13T19:44:14.072Z,18.03
2022-12-13T19:46:45.741Z,16.27
2022-12-13T19:49:17.397Z,20.93
2022-12-13T19:51:49.023Z,18.47
2022-12-13T19:54:22.047Z,16.70
2022-12-13T19:56:53.671Z,18.67
2022-12-13T19:59:25.311Z,18.77
2022-12-13T20:01:56.973Z,22.80
2022-12-13T20:04:28.896Z,20.43
2022-12-13T20:07:00.528Z,19.63
2022-12-13T20:09:33.523Z,22.50
2022-12-13T20:12:05.816Z,17.63
2022-12-13T20:14:37.540Z,19.20
2022-12-13T20:17:09.157Z,21.37
2022-12-13T20:19:40.804Z,16.30
2022-12-13T20:22:13.059Z,18.50
2022-12-13T20:24:46.077Z,18.13
2022-12-13T20:27:19.685Z,21.00
2022-12-13T20:29:51.356Z,18.63
2022-12-13T20:32:25.059Z,18.23
2022-12-13T20:34:56.698Z,16.30
2022-12-13T20:37:28.352Z,19.03
2022-12-13T20:40:01.346Z,20.20
2022-12-13T20:42:33.072Z,15.57
2022-12-13T20:45:05.272Z,16.40
2022-12-13T20:47:38.057Z,16.53
2022-12-13T20:50:10.085Z,16.33
2022-12-13T20:52:45.122Z,16.70
2022-12-13T20:55:20.788Z,17.77
2022-12-13T20:57:52.430Z,17.37
2022-12-13T21:00:24.107Z,16.10
2022-12-13T21:02:55.744Z,13.87
2022-12-13T21:05:27.389Z,19.20
2022-12-13T21:07:59.033Z,18.17
2022-12-13T21:10:32.035Z,20.20
2022-12-13T21:13:03.650Z,19.97
2022-12-13T21:15:35.293Z,17.80
2022-12-13T21:18:06.920Z,18.50
2022-12-13T21:20:38.638Z,16.67
2022-12-13T21:23:10.313Z,16.20
2022-12-13T21:25:43.322Z,18.53
2022-12-13T21:28:14.942Z,20.17
2022-12-13T21:30:46.591Z,17.23
2022-12-13T21:33:18.224Z,21.50
2022-12-13T21:35:49.879Z,16.57
2022-12-13T21:38:21.688Z,16.57
2022-12-13T21:40:54.702Z,16.77
2022-12-13T21:43:26.586Z,15.47
2022-12-13T21:45:58.464Z,17.33
2022-12-13T21:48:30.356Z,18.60
2022-12-13T21:51:02.002Z,19.10
2022-12-13T21:53:33.848Z,21.17
2022-12-13T21:56:07.494Z,18.13
2022-12-13T21:58:39.150Z,16.93
2022-12-13T22:01:10.915Z,18.30
2022-12-13T22:03:42.556Z,17.27
2022-12-13T22:06:14.212Z,18.97
2022-12-13T22:08:45.839Z,18.27
2022-12-13T22:11:21.569Z,17.20
2022-12-13T22:13:53.481Z,21.73
2022-12-13T22:16:25.169Z,14.13
2022-12-13T22:18:56.918Z,16.63
2022-12-13T22:21:28.599Z,14.13
2022-12-13T22:24:00.230Z,14.57
2022-12-13T22:26:33.214Z,17.17
2022-12-13T22:29:04.843Z,17.87
2022-12-13T22:31:36.524Z,17.17
2022-12-13T22:34:08.183Z,16.53
2022-12-13T22:36:39.847Z,16.83
2022-12-13T22:39:14.841Z,14.10
2022-12-13T22:41:48.078Z,15.47
2022-12-13T22:44:20.048Z,14.00
2022-12-13T22:46:51.691Z,15.13
2022-12-13T22:49:23.331Z,17.27
2022-12-13T22:51:54.970Z,17.63
2022-12-13T22:54:26.601Z,15.73
2022-12-13T22:56:59.613Z,14.40
2022-12-13T22:59:31.261Z,14.03
